Main page
METAR-TAF:

METAR-TAF

Airports :

Newcastle Airport

Newcastle upon Tyne, England

latitude: 55-02N, longitude: 001-42W, elevation: 81 m

Current weather observation

The report was made 11 minutes ago, at 06:20 UTC
Wind 4 kt from the South/Southwest, varying between South and Southwest
Temperature 10°C
Humidity 82%
Pressure 1014 hPa
Visibility 10 km or more
Scattered clouds at a height of 3000 ft

METAR: EGNT 170620Z 20004KT 170V230 9999 SCT030 10/07 Q1014

Time: 07:31 (06:31 UTC)

Forecast

The report was made 1 hour and 27 minutes ago, at 05:04 UTC
Forecast valid from 17 at 06 UTC to 18 at 06 UTC
Wind 6 kt from the South/Southwest
Visibility 10 km or more
Few clouds at a height of 3000 ft
Probability 30% :
Temporary
from 17 at 06 UTC to 17 at 09 UTC
Visibility: 9000 m
Becoming
from 17 at 09 UTC to 17 at 12 UTC
Wind 10 kt from the West

TAF: EGNT 170504Z 1706/1806 21006KT 9999 FEW030 PROB30 TEMPO 1706/1709 9000 BECMG 1709/1712 28010KT

Weather observations and forecasts of more than 4000 airports (METAR and TAF reports).

The available stations are represented by yellow and red dots on the map.

Hover mouse over dot to see the name of the station.

Then click to see weather observations and forecasts.

To change the map : click on the green buttons with a black cross to zoom in, on the green button with a dash to zoom out, or on the green arrows for adjacent maps.


METAR-TAF: